createdAt,value
2018-04-29T00:00:07.799Z,11.60
2018-04-29T00:02:38.264Z,11.70
2018-04-29T00:05:09.745Z,11.70
2018-04-29T00:07:40.258Z,11.70
2018-04-29T00:10:11.446Z,11.80
2018-04-29T00:12:42.720Z,11.90
2018-04-29T00:15:14.041Z,11.90
2018-04-29T00:17:44.712Z,11.80
2018-04-29T00:20:15.919Z,11.60
2018-04-29T00:22:46.312Z,11.60
2018-04-29T00:25:17.664Z,11.60
2018-04-29T00:27:48.204Z,11.70
2018-04-29T00:30:18.686Z,11.70
2018-04-29T00:32:50.022Z,11.60
2018-04-29T00:35:21.223Z,11.60
2018-04-29T00:37:52.090Z,11.60
2018-04-29T00:40:23.405Z,11.50
2018-04-29T00:42:53.675Z,11.60
2018-04-29T00:45:24.579Z,11.60
2018-04-29T00:47:55.331Z,11.60
2018-04-29T00:50:26.221Z,11.60
2018-04-29T00:52:57.043Z,11.40
2018-04-29T00:55:29.302Z,11.10
2018-04-29T00:58:00.522Z,11.00
2018-04-29T01:00:31.320Z,11.00
2018-04-29T01:03:01.626Z,11.10
2018-04-29T01:05:32.833Z,11.20
2018-04-29T01:08:04.114Z,12.00
2018-04-29T01:10:36.258Z,10.60
2018-04-29T01:13:07.164Z,10.60
2018-04-29T01:15:38.187Z,10.60
2018-04-29T01:18:09.415Z,10.70
2018-04-29T01:20:39.988Z,10.80
2018-04-29T01:23:11.436Z,10.90
2018-04-29T01:25:42.296Z,10.90
2018-04-29T01:28:13.466Z,10.90
2018-04-29T01:30:44.429Z,11.00
2018-04-29T01:33:15.287Z,10.90
2018-04-29T01:35:46.315Z,10.90
2018-04-29T01:38:16.756Z,11.00
2018-04-29T01:40:48.257Z,10.90
2018-04-29T01:43:19.520Z,10.90
2018-04-29T01:45:50.318Z,10.90
2018-04-29T01:48:20.751Z,11.00
2018-04-29T01:50:52.204Z,10.90
2018-04-29T01:53:23.787Z,10.90
2018-04-29T01:55:54.565Z,10.90
2018-04-29T01:58:24.987Z,10.80
2018-04-29T02:00:56.234Z,10.60
2018-04-29T02:03:26.850Z,10.60
2018-04-29T02:05:57.637Z,10.70
2018-04-29T02:08:28.758Z,10.60
2018-04-29T02:10:59.247Z,10.60
2018-04-29T02:13:29.932Z,10.70
2018-04-29T02:16:00.452Z,10.60
2018-04-29T02:18:31.132Z,9.20
2018-04-29T02:21:01.732Z,10.60
2018-04-29T02:23:34.102Z,10.40
2018-04-29T02:26:05.885Z,9.40
2018-04-29T02:28:36.383Z,10.40
2018-04-29T02:31:06.726Z,10.50
2018-04-29T02:33:37.924Z,10.50
2018-04-29T02:36:08.362Z,10.60
2018-04-29T02:38:39.085Z,10.60
2018-04-29T02:41:09.525Z,10.70
2018-04-29T02:43:40.124Z,10.60
2018-04-29T02:46:11.213Z,10.50
2018-04-29T02:48:43.192Z,10.50
2018-04-29T02:51:14.436Z,10.40
2018-04-29T02:53:46.122Z,10.40
2018-04-29T02:56:16.453Z,10.30
2018-04-29T02:58:46.870Z,10.40
2018-04-29T03:01:17.936Z,10.30
2018-04-29T03:03:48.467Z,10.30
2018-04-29T03:06:19.443Z,10.40
2018-04-29T03:08:50.067Z,10.40
2018-04-29T03:11:20.776Z,10.30
2018-04-29T03:13:51.573Z,11.50
2018-04-29T03:16:22.632Z,10.20
2018-04-29T03:18:52.939Z,10.20
2018-04-29T03:21:23.852Z,10.10
2018-04-29T03:23:56.085Z,9.60
2018-04-29T03:26:27.013Z,9.60
2018-04-29T03:28:57.724Z,9.60
2018-04-29T03:31:28.331Z,9.70
2018-04-29T03:34:00.793Z,9.60
2018-04-29T03:36:31.433Z,9.60
2018-04-29T03:39:02.594Z,9.70
2018-04-29T03:41:33.271Z,9.70
2018-04-29T03:44:03.702Z,9.70
2018-04-29T03:46:34.613Z,9.80
2018-04-29T03:49:05.266Z,9.60
2018-04-29T03:51:35.606Z,10.50
2018-04-29T03:54:06.917Z,9.90
2018-04-29T03:56:38.487Z,8.50
2018-04-29T04:01:20.757Z,9.90
2018-04-29T04:03:56.303Z,10.00
2018-04-29T04:06:27.951Z,10.00
2018-04-29T04:08:59.383Z,9.90
2018-04-29T04:11:30.030Z,10.70
2018-04-29T04:14:02.208Z,9.90
2018-04-29T04:16:34.097Z,9.80
2018-04-29T04:19:04.502Z,9.80
2018-04-29T04:21:35.656Z,9.30
2018-04-29T04:24:06.501Z,9.30
2018-04-29T04:26:37.529Z,9.20
2018-04-29T04:29:09.485Z,9.50
2018-04-29T04:31:40.031Z,9.50
2018-04-29T04:34:10.601Z,9.80
2018-04-29T04:36:40.888Z,9.90
2018-04-29T04:39:11.716Z,10.10
2018-04-29T04:41:42.001Z,10.30
2018-04-29T04:44:12.232Z,10.40
2018-04-29T04:46:43.057Z,10.50
2018-04-29T04:49:13.335Z,10.50
2018-04-29T04:51:43.750Z,10.60
2018-04-29T04:54:14.201Z,10.60
2018-04-29T04:56:44.668Z,10.60
2018-04-29T04:59:15.498Z,10.40
2018-04-29T05:01:45.907Z,10.20
2018-04-29T05:04:16.313Z,10.10
2018-04-29T05:06:47.200Z,10.10
2018-04-29T05:09:18.503Z,10.10
2018-04-29T05:11:48.907Z,10.00
2018-04-29T05:14:20.029Z,10.40
2018-04-29T05:16:51.255Z,10.90
2018-04-29T05:19:21.676Z,10.80
2018-04-29T05:21:51.972Z,10.90
2018-04-29T05:24:22.471Z,10.90
2018-04-29T05:26:54.202Z,11.00
2018-04-29T05:29:25.444Z,11.20
2018-04-29T05:31:56.742Z,11.60
2018-04-29T05:34:27.799Z,11.90
2018-04-29T05:36:58.403Z,11.90
2018-04-29T05:39:29.089Z,12.10
2018-04-29T05:42:00.975Z,12.80
2018-04-29T05:44:31.555Z,12.80
2018-04-29T05:47:02.855Z,13.60
2018-04-29T05:49:34.438Z,14.20
2018-04-29T05:52:06.387Z,14.20
2018-04-29T05:54:36.711Z,14.10
2018-04-29T05:57:07.182Z,14.00
2018-04-29T05:59:38.002Z,13.80
2018-04-29T06:02:08.512Z,13.70
2018-04-29T06:04:38.824Z,13.40
2018-04-29T06:07:09.546Z,13.10
2018-04-29T06:09:40.820Z,13.00
2018-04-29T06:12:11.272Z,12.90
2018-04-29T06:14:41.615Z,13.00
2018-04-29T06:17:11.835Z,13.10
2018-04-29T06:19:43.366Z,13.20
2018-04-29T06:22:13.932Z,13.10
2018-04-29T06:24:44.273Z,13.10
2018-04-29T06:27:15.736Z,13.10
2018-04-29T06:29:46.266Z,13.10
2018-04-29T06:32:16.511Z,13.10
2018-04-29T06:34:46.907Z,13.00
2018-04-29T06:37:18.259Z,12.90
2018-04-29T06:39:49.839Z,13.00
2018-04-29T06:42:20.408Z,12.40
2018-04-29T06:44:50.729Z,13.10
2018-04-29T06:47:21.449Z,12.80
2018-04-29T06:49:51.801Z,12.80
2018-04-29T06:52:22.167Z,13.20
2018-04-29T06:54:52.559Z,13.60
2018-04-29T06:57:23.742Z,14.30
2018-04-29T06:59:54.632Z,14.30
2018-04-29T07:02:25.280Z,14.50
2018-04-29T07:04:56.545Z,13.80
2018-04-29T07:07:27.267Z,13.70
2018-04-29T07:09:58.708Z,13.20
2018-04-29T07:12:30.691Z,13.40
2018-04-29T07:15:01.009Z,13.40
2018-04-29T07:17:32.216Z,14.40
2018-04-29T07:20:03.425Z,14.40
2018-04-29T07:22:33.978Z,14.50
2018-04-29T07:25:05.327Z,14.40
2018-04-29T07:27:36.176Z,14.50
2018-04-29T07:30:06.729Z,14.30
2018-04-29T07:32:37.848Z,14.10
2018-04-29T07:35:08.275Z,14.10
2018-04-29T07:37:38.546Z,14.10
2018-04-29T07:40:09.386Z,14.30
2018-04-29T07:42:40.677Z,14.50
2018-04-29T07:45:11.165Z,14.50
2018-04-29T07:47:41.628Z,14.80
2018-04-29T07:50:12.210Z,14.60
2018-04-29T07:52:43.098Z,14.70
2018-04-29T07:55:14.503Z,15.40
2018-04-29T07:57:45.344Z,15.40
2018-04-29T08:00:16.092Z,16.10
2018-04-29T08:02:46.607Z,16.70
2018-04-29T08:05:17.498Z,17.10
2018-04-29T08:07:48.673Z,17.30
2018-04-29T08:10:20.693Z,17.60
2018-04-29T08:12:51.276Z,17.50
2018-04-29T08:15:22.500Z,17.80
2018-04-29T08:17:53.796Z,17.80
2018-04-29T08:20:24.467Z,17.80
2018-04-29T08:22:55.104Z,17.80
2018-04-29T08:25:25.891Z,17.70
2018-04-29T08:27:56.875Z,17.60
2018-04-29T08:30:28.168Z,17.20
2018-04-29T08:32:58.528Z,17.20
2018-04-29T08:35:29.044Z,17.00
2018-04-29T08:38:00.003Z,16.70
2018-04-29T08:40:30.828Z,16.50
2018-04-29T08:43:01.691Z,16.30
2018-04-29T08:45:32.207Z,16.20
2018-04-29T08:48:02.966Z,16.20
2018-04-29T08:50:35.019Z,16.40
2018-04-29T08:53:05.900Z,16.40
2018-04-29T08:55:36.350Z,17.00
2018-04-29T08:58:06.983Z,16.90
2018-04-29T09:00:39.876Z,17.00
2018-04-29T09:03:10.374Z,17.40
2018-04-29T09:05:40.809Z,17.80
2018-04-29T09:08:11.857Z,18.20
2018-04-29T09:10:42.437Z,18.50
2018-04-29T09:13:13.663Z,18.40
2018-04-29T09:15:44.223Z,18.40
2018-04-29T09:18:15.453Z,18.30
2018-04-29T09:20:46.423Z,18.30
2018-04-29T09:23:16.891Z,18.40
2018-04-29T09:25:49.807Z,18.90
2018-04-29T09:28:21.277Z,19.60
2018-04-29T09:30:52.753Z,19.70
2018-04-29T09:33:23.319Z,19.70
2018-04-29T09:35:54.292Z,19.90
2018-04-29T09:38:25.564Z,19.80
2018-04-29T09:40:56.205Z,19.90
2018-04-29T09:43:26.579Z,20.10
2018-04-29T09:45:57.568Z,20.20
2018-04-29T09:48:28.535Z,20.50
2018-04-29T09:50:59.334Z,20.50
2018-04-29T09:53:30.938Z,20.50
2018-04-29T09:56:01.592Z,20.60
2018-04-29T09:58:32.099Z,20.40
2018-04-29T10:01:04.688Z,20.00
2018-04-29T10:03:35.374Z,20.00
2018-04-29T10:06:06.097Z,19.90
2018-04-29T10:08:37.116Z,19.70
2018-04-29T10:11:08.027Z,19.70
2018-04-29T10:13:39.511Z,19.90
2018-04-29T10:16:11.956Z,19.80
2018-04-29T10:18:43.555Z,20.10
2018-04-29T10:21:14.790Z,19.90
2018-04-29T10:23:46.435Z,20.90
2018-04-29T10:26:17.615Z,20.90
2018-04-29T10:28:49.056Z,21.10
2018-04-29T10:31:19.599Z,21.30
2018-04-29T10:33:52.048Z,21.90
2018-04-29T10:36:23.209Z,21.90
2018-04-29T10:38:54.044Z,21.70
2018-04-29T10:41:24.995Z,22.00
2018-04-29T10:43:56.137Z,22.00
2018-04-29T10:46:27.106Z,22.00
2018-04-29T10:48:58.696Z,21.80
2018-04-29T10:51:29.415Z,21.90
2018-04-29T10:54:01.944Z,22.20
2018-04-29T10:56:32.943Z,22.50
2018-04-29T10:59:04.284Z,22.60
2018-04-29T11:01:35.988Z,22.20
2018-04-29T11:04:06.664Z,22.20
2018-04-29T11:06:38.193Z,20.90
2018-04-29T11:09:09.804Z,20.80
2018-04-29T11:11:40.563Z,20.90
2018-04-29T11:14:12.956Z,20.70
2018-04-29T11:16:45.519Z,21.90
2018-04-29T11:19:16.904Z,22.10
2018-04-29T11:21:48.438Z,22.10
2018-04-29T11:24:19.805Z,22.10
2018-04-29T11:26:52.731Z,22.50
2018-04-29T11:29:23.168Z,22.40
2018-04-29T11:31:54.841Z,22.50
2018-04-29T11:34:26.569Z,22.40
2018-04-29T11:36:57.561Z,22.20
2018-04-29T11:39:28.107Z,22.20
2018-04-29T11:41:59.779Z,22.60
2018-04-29T11:44:30.800Z,22.60
2018-04-29T11:47:02.483Z,23.60
2018-04-29T11:49:33.943Z,22.50
2018-04-29T11:52:05.316Z,22.50
2018-04-29T11:54:36.318Z,22.40
2018-04-29T11:57:07.401Z,22.60
2018-04-29T11:59:40.708Z,22.90
2018-04-29T12:02:12.293Z,22.80
2018-04-29T12:04:44.668Z,22.90
2018-04-29T12:07:16.301Z,22.90
2018-04-29T12:09:47.923Z,23.00
2018-04-29T12:12:19.699Z,23.00
2018-04-29T12:14:50.539Z,23.00
2018-04-29T12:17:21.052Z,23.00
2018-04-29T12:19:52.523Z,23.20
2018-04-29T12:22:23.588Z,23.50
2018-04-29T12:24:55.356Z,23.40
2018-04-29T12:27:25.787Z,23.30
2018-04-29T12:29:56.511Z,22.90
2018-04-29T12:32:27.760Z,22.50
2018-04-29T12:34:59.148Z,22.60
2018-04-29T12:37:30.576Z,22.60
2018-04-29T12:40:02.142Z,22.50
2018-04-29T12:42:33.046Z,22.50
2018-04-29T12:45:04.302Z,22.60
2018-04-29T12:47:35.275Z,22.60
2018-04-29T12:50:06.246Z,22.60
2018-04-29T12:52:37.559Z,22.60
2018-04-29T12:55:10.287Z,22.50
2018-04-29T12:57:42.709Z,22.60
2018-04-29T13:00:15.797Z,22.60
2018-04-29T13:02:49.496Z,22.70
2018-04-29T13:05:22.493Z,22.90
2018-04-29T13:07:53.492Z,23.10
2018-04-29T13:10:26.665Z,23.20
2018-04-29T13:12:58.913Z,23.30
2018-04-29T13:15:35.534Z,23.30
2018-04-29T13:18:09.447Z,23.30
2018-04-29T13:20:44.435Z,23.40
2018-04-29T13:23:17.173Z,23.50
2018-04-29T13:25:51.076Z,23.10
2018-04-29T13:28:22.408Z,23.10
2018-04-29T13:30:54.166Z,23.60
2018-04-29T13:33:25.208Z,23.50
2018-04-29T13:35:58.353Z,23.20
2018-04-29T13:38:31.194Z,23.20
2018-04-29T13:41:03.450Z,22.60
2018-04-29T13:43:36.274Z,22.40
2018-04-29T13:46:11.417Z,22.40
2018-04-29T13:48:44.440Z,23.10
2018-04-29T13:51:17.383Z,22.60
2018-04-29T13:53:49.241Z,23.50
2018-04-29T13:56:20.291Z,22.60
2018-04-29T13:58:52.923Z,22.80
2018-04-29T14:01:26.359Z,22.90
2018-04-29T14:04:14.989Z,23.00
2018-04-29T14:06:47.436Z,23.10
2018-04-29T14:09:22.368Z,23.40
2018-04-29T14:11:53.500Z,23.40
2018-04-29T14:14:25.773Z,23.50
2018-04-29T14:16:57.539Z,23.50
2018-04-29T14:19:29.159Z,23.30
2018-04-29T14:22:00.373Z,23.30
2018-04-29T14:24:31.770Z,22.70
2018-04-29T14:27:03.836Z,23.70
2018-04-29T14:29:35.853Z,23.60
2018-04-29T14:32:06.782Z,23.80
2018-04-29T14:34:38.089Z,23.80
2018-04-29T14:37:11.390Z,23.70
2018-04-29T14:39:43.620Z,23.60
2018-04-29T14:42:15.223Z,23.60
2018-04-29T14:44:46.512Z,23.80
2018-04-29T14:47:17.234Z,23.70
2018-04-29T14:49:48.506Z,23.70
2018-04-29T14:52:19.340Z,23.70
2018-04-29T14:54:50.507Z,23.90
2018-04-29T14:57:21.469Z,24.00
2018-04-29T14:59:52.748Z,24.00
2018-04-29T15:02:24.016Z,24.00
2018-04-29T15:04:54.575Z,24.00
2018-04-29T15:07:26.349Z,23.70
2018-04-29T15:09:56.874Z,23.70
2018-04-29T15:12:28.575Z,23.70
2018-04-29T15:14:59.526Z,22.80
2018-04-29T15:17:31.127Z,23.50
2018-04-29T15:20:04.106Z,24.10
2018-04-29T15:22:34.872Z,23.60
2018-04-29T15:25:06.153Z,23.80
2018-04-29T15:27:37.117Z,23.80
2018-04-29T15:30:08.296Z,23.80
2018-04-29T15:32:39.760Z,23.80
2018-04-29T15:35:10.465Z,23.80
2018-04-29T15:37:41.469Z,23.10
2018-04-29T15:40:13.340Z,23.90
2018-04-29T15:42:44.023Z,24.00
2018-04-29T15:45:14.783Z,24.20
2018-04-29T15:47:46.298Z,24.30
2018-04-29T15:50:18.494Z,24.20
2018-04-29T15:52:48.873Z,24.20
2018-04-29T15:55:19.404Z,23.40
2018-04-29T15:57:49.806Z,22.80
2018-04-29T16:00:20.908Z,22.30
2018-04-29T16:02:51.346Z,22.10
2018-04-29T16:05:23.080Z,22.00
2018-04-29T16:07:55.040Z,22.00
2018-04-29T16:10:25.736Z,22.00
2018-04-29T16:12:56.443Z,22.20
2018-04-29T16:15:28.464Z,22.10
2018-04-29T16:17:59.240Z,21.10
2018-04-29T16:20:30.508Z,22.00
2018-04-29T16:23:00.914Z,22.00
2018-04-29T16:25:35.359Z,22.00
2018-04-29T16:28:07.953Z,21.90
2018-04-29T16:30:39.159Z,21.80
2018-04-29T16:33:10.580Z,22.00
2018-04-29T16:35:44.619Z,21.90
2018-04-29T16:38:16.509Z,22.00
2018-04-29T16:40:50.184Z,22.00
2018-04-29T16:43:21.150Z,22.00
2018-04-29T16:45:51.727Z,22.10
2018-04-29T16:48:23.620Z,22.10
2018-04-29T16:50:55.809Z,22.00
2018-04-29T16:53:27.542Z,21.60
2018-04-29T16:55:59.735Z,21.80
2018-04-29T16:58:31.124Z,22.10
2018-04-29T17:01:03.185Z,22.20
2018-04-29T17:03:35.366Z,22.10
2018-04-29T17:06:07.858Z,22.10
2018-04-29T17:08:38.588Z,22.30
2018-04-29T17:11:11.702Z,21.90
2018-04-29T17:13:44.998Z,21.60
2018-04-29T17:16:16.829Z,21.60
2018-04-29T17:18:49.645Z,21.60
2018-04-29T17:21:20.487Z,21.30
2018-04-29T17:23:51.594Z,21.30
2018-04-29T17:26:25.351Z,21.30
2018-04-29T17:28:56.878Z,21.40
2018-04-29T17:31:27.263Z,21.40
2018-04-29T17:33:58.645Z,21.50
2018-04-29T17:36:31.849Z,21.30
2018-04-29T17:39:03.018Z,21.20
2018-04-29T17:41:34.758Z,21.00
2018-04-29T17:44:05.653Z,21.10
2018-04-29T17:46:36.501Z,21.30
2018-04-29T17:49:08.847Z,21.20
2018-04-29T17:51:41.473Z,20.90
2018-04-29T17:54:13.205Z,20.90
2018-04-29T17:56:44.876Z,21.00
2018-04-29T17:59:15.842Z,20.90
2018-04-29T18:01:48.321Z,20.60
2018-04-29T18:04:19.641Z,20.50
2018-04-29T18:06:50.732Z,20.40
2018-04-29T18:09:22.461Z,20.40
2018-04-29T18:11:57.386Z,20.30
2018-04-29T18:14:27.852Z,20.30
2018-04-29T18:17:00.537Z,20.30
2018-04-29T18:19:33.353Z,20.40
2018-04-29T18:22:04.906Z,20.40
2018-04-29T18:24:35.392Z,20.70
2018-04-29T18:27:06.993Z,21.00
2018-04-29T18:29:37.960Z,21.00
2018-04-29T18:32:10.808Z,21.10
2018-04-29T18:34:45.485Z,21.00
2018-04-29T18:37:17.852Z,21.00
2018-04-29T18:39:51.419Z,21.00
2018-04-29T18:42:25.369Z,21.00
2018-04-29T18:45:00.666Z,20.80
2018-04-29T18:47:33.515Z,20.60
2018-04-29T18:50:06.503Z,20.00
2018-04-29T18:52:43.024Z,20.10
2018-04-29T18:55:14.341Z,20.20
2018-04-29T18:57:44.965Z,20.30
2018-04-29T19:00:15.619Z,20.10
2018-04-29T19:02:47.093Z,19.80
2018-04-29T19:05:17.829Z,20.00
2018-04-29T19:07:49.756Z,19.80
2018-04-29T19:10:21.403Z,19.80
2018-04-29T19:12:51.972Z,19.90
2018-04-29T19:15:23.915Z,19.90
2018-04-29T19:17:59.711Z,19.90
2018-04-29T19:20:31.689Z,19.90
2018-04-29T19:23:05.166Z,19.90
2018-04-29T19:25:40.051Z,19.70
2018-04-29T19:28:15.022Z,19.70
2018-04-29T19:30:46.808Z,19.70
2018-04-29T19:33:18.774Z,19.70
2018-04-29T19:35:49.219Z,19.50
2018-04-29T19:38:25.848Z,19.40
2018-04-29T19:40:58.872Z,19.30
2018-04-29T19:43:29.732Z,19.20
2018-04-29T19:46:03.212Z,19.10
2018-04-29T19:48:34.868Z,19.10
2018-04-29T19:51:08.813Z,18.80
2018-04-29T19:53:39.426Z,18.60
2018-04-29T19:56:10.317Z,18.50
2018-04-29T19:58:41.778Z,18.60
2018-04-29T20:01:12.765Z,18.60
2018-04-29T20:03:44.691Z,18.60
2018-04-29T20:06:16.872Z,18.70
2018-04-29T20:08:48.355Z,18.90
2018-04-29T20:11:19.551Z,19.00
2018-04-29T20:13:52.928Z,19.00
2018-04-29T20:16:26.025Z,18.80
2018-04-29T20:18:59.301Z,18.70
2018-04-29T20:21:30.302Z,19.50
2018-04-29T20:24:02.065Z,18.60
2018-04-29T20:26:35.554Z,18.50
2018-04-29T20:29:08.789Z,18.50
2018-04-29T20:31:39.334Z,18.70
2018-04-29T20:34:10.841Z,18.70
2018-04-29T20:36:41.848Z,18.70
2018-04-29T20:39:12.496Z,18.90
2018-04-29T20:41:43.133Z,19.00
2018-04-29T20:44:14.774Z,18.90
2018-04-29T20:46:45.375Z,19.00
2018-04-29T20:49:17.418Z,18.80
2018-04-29T20:51:48.284Z,18.70
2018-04-29T20:54:20.132Z,18.80
2018-04-29T20:56:51.012Z,18.80
2018-04-29T20:59:22.282Z,18.60
2018-04-29T21:01:53.031Z,18.60
2018-04-29T21:04:25.144Z,18.60
2018-04-29T21:06:57.196Z,18.40
2018-04-29T21:09:28.806Z,18.60
2018-04-29T21:12:00.362Z,18.60
2018-04-29T21:14:30.999Z,18.50
2018-04-29T21:17:01.412Z,18.70
2018-04-29T21:19:32.025Z,18.60
2018-04-29T21:22:03.056Z,18.60
2018-04-29T21:24:33.774Z,18.30
2018-04-29T21:27:04.962Z,18.20
2018-04-29T21:29:38.039Z,18.20
2018-04-29T21:32:08.382Z,18.30
2018-04-29T21:34:40.620Z,18.40
2018-04-29T21:37:11.691Z,18.40
2018-04-29T21:39:42.051Z,18.60
2018-04-29T21:42:13.574Z,18.50
2018-04-29T21:44:43.943Z,19.90
2018-04-29T21:47:16.220Z,18.10
2018-04-29T21:49:47.841Z,17.60
2018-04-29T21:52:18.348Z,17.60
2018-04-29T21:54:48.847Z,16.60
2018-04-29T21:57:19.666Z,15.70
2018-04-29T21:59:50.891Z,15.30
2018-04-29T22:02:22.848Z,15.20
2018-04-29T22:04:53.931Z,15.10
2018-04-29T22:07:25.519Z,15.50
2018-04-29T22:09:56.652Z,15.50
2018-04-29T22:12:27.264Z,16.00
2018-04-29T22:14:59.735Z,16.40
2018-04-29T22:17:30.583Z,17.60
2018-04-29T22:20:01.247Z,16.50
2018-04-29T22:22:32.991Z,16.60
2018-04-29T22:25:04.742Z,16.80
2018-04-29T22:27:35.243Z,17.40
2018-04-29T22:30:06.124Z,15.90
2018-04-29T22:32:36.532Z,16.10
2018-04-29T22:35:07.226Z,15.80
2018-04-29T22:37:39.315Z,14.50
2018-04-29T22:40:09.919Z,14.50
2018-04-29T22:42:41.636Z,13.70
2018-04-29T22:45:12.471Z,13.70
2018-04-29T22:47:42.923Z,14.20
2018-04-29T22:50:13.416Z,14.70
2018-04-29T22:52:45.390Z,15.00
2018-04-29T22:55:15.659Z,15.20
2018-04-29T22:57:47.081Z,15.30
2018-04-29T23:00:17.726Z,15.30
2018-04-29T23:02:48.967Z,15.50
2018-04-29T23:05:19.836Z,15.20
2018-04-29T23:07:50.395Z,15.10
2018-04-29T23:10:20.834Z,15.00
2018-04-29T23:12:51.699Z,14.50
2018-04-29T23:15:22.413Z,14.00
2018-04-29T23:17:52.740Z,14.20
2018-04-29T23:20:23.227Z,14.40
2018-04-29T23:22:53.696Z,14.90
2018-04-29T23:25:24.536Z,15.20
2018-04-29T23:27:54.921Z,15.50
2018-04-29T23:30:25.411Z,15.60
2018-04-29T23:32:57.639Z,16.00
2018-04-29T23:35:28.478Z,16.00
2018-04-29T23:37:59.802Z,16.20
2018-04-29T23:40:30.061Z,15.50
2018-04-29T23:43:00.363Z,14.90
2018-04-29T23:45:31.625Z,15.10
2018-04-29T23:48:02.190Z,15.10
2018-04-29T23:50:33.484Z,15.70
2018-04-29T23:53:05.295Z,15.70
2018-04-29T23:55:36.615Z,16.30
2018-04-29T23:58:07.170Z,16.30
